Kindred, North Dakota
Current Conditions -  °F | °C
As of 4:44 PM on Monday 26 Jan 2015 (Local Time) from KFAR Reporting Station
Scattered Clouds Scattered Clouds  
Wind Chill: 25°   Ceiling: Unl
Heat Index: 34°   Visibility: 10mi
Dew Point: 28°   Wind: 13mph
Humidity: 79%   Direction: 10°N
Pressure: 29.94"   Gusts: NA
Location:  46.65°N, 97.02°W
Report Text: KFAR 262244Z 01011KT 10SM FEW015 SCT021 01/M02 A2994 RMK AO2 T00111022
Loading
Personal Weather Stations






























Interactive Weather Map New forecast layout! Learn more

10-Day Weather Forecast

Advertisements
Track Severe Weather on mobile